地図

経路データ

SID SEASON NUMBER BASIN SUBBASIN NAME ISO_TIME NATURE LAT LON WMO_WIND WMO_PRES WMO_AGENCY TRACK_TYPE DIST2LAND LANDFALL IFLAG USA_AGENCY USA_ATCF_ID USA_LAT USA_LON USA_RECORD USA_STATUS USA_WIND USA_PRES USA_SSHS USA_R34_NE USA_R34_SE USA_R34_SW USA_R34_NW USA_R50_NE USA_R50_SE USA_R50_SW USA_R50_NW USA_R64_NE USA_R64_SE USA_R64_SW USA_R64_NW USA_POCI USA_ROCI USA_RMW USA_EYE TOKYO_LAT TOKYO_LON TOKYO_GRADE TOKYO_WIND TOKYO_PRES TOKYO_R50_DIR TOKYO_R50_LONG TOKYO_R50_SHORT TOKYO_R30_DIR TOKYO_R30_LONG TOKYO_R30_SHORT TOKYO_LAND CMA_LAT CMA_LON CMA_CAT CMA_WIND CMA_PRES HKO_LAT HKO_LON HKO_CAT HKO_WIND HKO_PRES NEWDELHI_LAT NEWDELHI_LON NEWDELHI_GRADE NEWDELHI_WIND NEWDELHI_PRES NEWDELHI_CI NEWDELHI_DP NEWDELHI_POCI REUNION_LAT REUNION_LON REUNION_TYPE REUNION_WIND REUNION_PRES REUNION_TNUM REUNION_CI REUNION_RMW REUNION_R34_NE REUNION_R34_SE REUNION_R34_SW REUNION_R34_NW REUNION_R50_NE REUNION_R50_SE REUNION_R50_SW REUNION_R50_NW REUNION_R64_NE REUNION_R64_SE REUNION_R64_SW REUNION_R64_NW BOM_LAT BOM_LON BOM_TYPE BOM_WIND BOM_PRES BOM_TNUM BOM_CI BOM_RMW BOM_R34_NE BOM_R34_SE BOM_R34_SW BOM_R34_NW BOM_R50_NE BOM_R50_SE BOM_R50_SW BOM_R50_NW BOM_R64_NE BOM_R64_SE BOM_R64_SW BOM_R64_NW BOM_ROCI BOM_POCI BOM_EYE BOM_POS_METHOD BOM_PRES_METHOD NADI_LAT NADI_LON NADI_CAT NADI_WIND NADI_PRES WELLINGTON_LAT WELLINGTON_LON WELLINGTON_WIND WELLINGTON_PRES DS824_LAT DS824_LON DS824_STAGE DS824_WIND DS824_PRES TD9636_LAT TD9636_LON TD9636_STAGE TD9636_WIND TD9636_PRES TD9635_LAT TD9635_LON TD9635_WIND TD9635_PRES TD9635_ROCI NEUMANN_LAT NEUMANN_LON NEUMANN_CLASS NEUMANN_WIND NEUMANN_PRES MLC_LAT MLC_LON MLC_CLASS MLC_WIND MLC_PRES USA_GUST BOM_GUST BOM_GUST_PER REUNION_GUST REUNION_GUST_PER USA_SEAHGT USA_SEARAD_NE USA_SEARAD_SE USA_SEARAD_SW USA_SEARAD_NW STORM_SPEED STORM_DIR
1950224N17305 1950 58 NA NA ABLE 1950-08-12 00:00:00 TS 17.1000 -55.5000 35 hurdat_atl main 930 925 O_____________ hurdat_atl AL011950 17.1000 -55.5000 TS 35 0 10 312
1950224N17305 1950 58 NA NA ABLE 1950-08-12 03:00:00 TS 17.4176 -55.8722 main 930 926 P_____________ AL011950 17.4176 -55.8722 TS 37 0 10 308
1950224N17305 1950 58 NA NA ABLE 1950-08-12 06:00:00 TS 17.7000 -56.3000 40 hurdat_atl main 933 924 O_____________ hurdat_atl AL011950 17.7000 -56.3000 TS 40 0 10 300
1950224N17305 1950 58 NA NA ABLE 1950-08-12 09:00:00 TS 17.9350 -56.8204 main 924 866 P_____________ AL011950 17.9350 -56.8204 TS 42 0 12 296
1950224N17305 1950 58 NA NA ABLE 1950-08-12 12:00:00 TS 18.2000 -57.4000 45 hurdat_atl main 866 812 O_____________ hurdat_atl AL011950 18.2000 -57.4000 TS 45 0 13 300
1950224N17305 1950 58 NA NA ABLE 1950-08-12 15:00:00 TS 18.5622 -57.9778 main 801 740 P_____________ AL011950 18.5622 -57.9778 TS 47 0 14 305
1950224N17305 1950 58 NA NA ABLE 1950-08-12 18:00:00 TS 19.0000 -58.6000 50 hurdat_atl main 740 673 O_____________ hurdat_atl AL011950 19.0000 -58.6000 TS 50 0 16 307
1950224N17305 1950 58 NA NA ABLE 1950-08-12 21:00:00 TS 19.5076 -59.3071 main 673 614 P_____________ AL011950 19.5076 -59.3071 TS 50 0 17 307
1950224N17305 1950 58 NA NA ABLE 1950-08-13 00:00:00 TS 20.0000 -60.0000 50 hurdat_atl main 614 575 O_____________ hurdat_atl AL011950 20.0000 -60.0000 TS 50 0 15 306
1950224N17305 1950 58 NA NA ABLE 1950-08-13 03:00:00 TS 20.3796 -60.5731 main 570 537 P_____________ AL011950 20.3796 -60.5731 TS 50 0 12 304
1950224N17305 1950 58 NA NA ABLE 1950-08-13 06:00:00 TS 20.7000 -61.1000 50 hurdat_atl main 537 509 O_____________ hurdat_atl AL011950 20.7000 -61.1000 TS 50 0 12 301
1950224N17305 1950 58 NA NA ABLE 1950-08-13 09:00:00 TS 20.9999 -61.6578 main 501 481 P_____________ AL011950 20.9999 -61.6578 TS 52 0 12 300
1950224N17305 1950 58 NA NA ABLE 1950-08-13 12:00:00 TS 21.3000 -62.2000 55 hurdat_atl main 481 467 O_____________ hurdat_atl AL011950 21.3000 -62.2000 TS 55 0 12 303
1950224N17305 1950 58 NA NA ABLE 1950-08-13 15:00:00 TS 21.6425 -62.7375 main 468 464 P_____________ AL011950 21.6425 -62.7375 TS 55 0 12 307
1950224N17305 1950 58 NA NA ABLE 1950-08-13 18:00:00 TS 22.0000 -63.2000 55 997 hurdat_atl main 474 474 O_____________ hurdat_atl AL011950 22.0000 -63.2000 TS 55 997 0 10 315
1950224N17305 1950 58 NA NA ABLE 1950-08-13 21:00:00 TS 22.3721 -63.5153 main 497 493 P_____________ AL011950 22.3721 -63.5153 TS 57 996 0 9 322
1950224N17305 1950 58 NA NA ABLE 1950-08-14 00:00:00 TS 22.7000 -63.8000 60 995 hurdat_atl main 516 512 O_____________ hurdat_atl AL011950 22.7000 -63.8000 TS 60 995 0 8 312
1950224N17305 1950 58 NA NA ABLE 1950-08-14 03:00:00 TS 22.9300 -64.1851 main 523 523 P_____________ AL011950 22.9300 -64.1851 TS 60 995 0 8 298
1950224N17305 1950 58 NA NA ABLE 1950-08-14 06:00:00 TS 23.1000 -64.6000 60 hurdat_atl main 535 533 I_____________ hurdat_atl AL011950 23.1000 -64.6000 TS 60 995 0 8 292
1950224N17305 1950 58 NA NA ABLE 1950-08-14 09:00:00 TS 23.2425 -65.0152 main 540 540 P_____________ AL011950 23.2425 -65.0152 TS 60 995 0 8 292
1950224N17305 1950 58 NA NA ABLE 1950-08-14 12:00:00 TS 23.4000 -65.4000 60 995 hurdat_atl main 559 559 O_____________ hurdat_atl AL011950 23.4000 -65.4000 TS 60 995 0 8 300
1950224N17305 1950 58 NA NA ABLE 1950-08-14 15:00:00 TS 23.6350 -65.7449 main 581 581 P_____________ AL011950 23.6350 -65.7449 TS 62 992 0 7 312
1950224N17305 1950 58 NA NA ABLE 1950-08-14 18:00:00 TS 23.9000 -66.0000 65 989 hurdat_atl main 615 615 O_____________ hurdat_atl AL011950 23.9000 -66.0000 HU 65 989 1 6 327
1950224N17305 1950 58 NA NA ABLE 1950-08-14 21:00:00 TS 24.1574 -66.1227 main 639 639 P_____________ AL011950 24.1574 -66.1227 HU 65 1 5 340
1950224N17305 1950 58 NA NA ABLE 1950-08-15 00:00:00 TS 24.4000 -66.2000 65 hurdat_atl main 653 653 O_____________ hurdat_atl AL011950 24.4000 -66.2000 HU 65 1 5 336
1950224N17305 1950 58 NA NA ABLE 1950-08-15 03:00:00 TS 24.6075 -66.3425 main 668 663 P_____________ AL011950 24.6075 -66.3425 HU 65 1 5 326
1950224N17305 1950 58 NA NA ABLE 1950-08-15 06:00:00 TS 24.8000 -66.5000 65 hurdat_atl main 679 679 O_____________ hurdat_atl AL011950 24.8000 -66.5000 HU 65 1 5 328
1950224N17305 1950 58 NA NA ABLE 1950-08-15 09:00:00 TS 25.0074 -66.6201 main 695 695 P_____________ AL011950 25.0074 -66.6201 HU 67 1 5 326
1950224N17305 1950 58 NA NA ABLE 1950-08-15 12:00:00 TS 25.2000 -66.8000 70 987 hurdat_atl main 707 702 O_____________ hurdat_atl AL011950 25.2000 -66.8000 HU 70 987 1 6 308
1950224N17305 1950 58 NA NA ABLE 1950-08-15 15:00:00 TS 25.3651 -67.1274 main 713 705 P_____________ AL011950 25.3651 -67.1274 HU 72 1 7 295
1950224N17305 1950 58 NA NA ABLE 1950-08-15 18:00:00 TS 25.5000 -67.5000 75 hurdat_atl main 707 704 O_____________ hurdat_atl AL011950 25.5000 -67.5000 HU 75 1 7 293
1950224N17305 1950 58 NA NA ABLE 1950-08-15 21:00:00 TS 25.6224 -67.8075 main 707 704 P_____________ AL011950 25.6224 -67.8075 HU 77 1 6 290
1950224N17305 1950 58 NA NA ABLE 1950-08-16 00:00:00 TS 25.7000 -68.1000 80 hurdat_atl main 707 687 O_____________ hurdat_atl AL011950 25.7000 -68.1000 HU 80 1 5 281
1950224N17305 1950 58 NA NA ABLE 1950-08-16 03:00:00 TS 25.7299 -68.4000 main 687 667 P_____________ AL011950 25.7299 -68.4000 HU 80 1 5 270
1950224N17305 1950 58 NA NA ABLE 1950-08-16 06:00:00 TS 25.7000 -68.7000 80 hurdat_atl main 667 638 O_____________ hurdat_atl AL011950 25.7000 -68.7000 HU 80 1 6 257
1950224N17305 1950 58 NA NA ABLE 1950-08-16 09:00:00 TS 25.6075 -69.0076 main 638 611 P_____________ AL011950 25.6075 -69.0076 HU 80 1 6 250
1950224N17305 1950 58 NA NA ABLE 1950-08-16 12:00:00 TS 25.5000 -69.3000 80 980 hurdat_atl main 611 589 O_____________ hurdat_atl AL011950 25.5000 -69.3000 HU 80 980 1 5 250
1950224N17305 1950 58 NA NA ABLE 1950-08-16 15:00:00 TS 25.4348 -69.5350 main 589 571 P_____________ AL011950 25.4348 -69.5350 HU 82 1 5 257
1950224N17305 1950 58 NA NA ABLE 1950-08-16 18:00:00 TS 25.4000 -69.8000 85 hurdat_atl main 571 554 O_____________ hurdat_atl AL011950 25.4000 -69.8000 HU 85 2 6 266
1950224N17305 1950 58 NA NA ABLE 1950-08-16 21:00:00 TS 25.3925 -70.1700 main 549 529 P_____________ AL011950 25.3925 -70.1700 HU 87 2 7 270
1950224N17305 1950 58 NA NA ABLE 1950-08-17 00:00:00 TS 25.4000 -70.6000 90 hurdat_atl main 529 511 O_____________ hurdat_atl AL011950 25.4000 -70.6000 HU 90 2 8 270
1950224N17305 1950 58 NA NA ABLE 1950-08-17 03:00:00 TS 25.3923 -71.0276 main 511 493 P_____________ AL011950 25.3923 -71.0276 HU 92 2 8 270
1950224N17305 1950 58 NA NA ABLE 1950-08-17 06:00:00 TS 25.4000 -71.5000 95 hurdat_atl main 493 480 O_____________ hurdat_atl AL011950 25.4000 -71.5000 HU 95 2 9 272
1950224N17305 1950 58 NA NA ABLE 1950-08-17 09:00:00 TS 25.4202 -72.0651 main 478 474 P_____________ AL011950 25.4202 -72.0651 HU 97 3 10 276
1950224N17305 1950 58 NA NA ABLE 1950-08-17 12:00:00 TS 25.5000 -72.6000 100 962 hurdat_atl main 482 481 O_____________ hurdat_atl AL011950 25.5000 -72.6000 HU 100 962 3 9 285
1950224N17305 1950 58 NA NA ABLE 1950-08-17 15:00:00 TS 25.6472 -72.9877 main 488 469 P_____________ AL011950 25.6472 -72.9877 HU 100 3 7 302
1950224N17305 1950 58 NA NA ABLE 1950-08-17 18:00:00 TS 25.9000 -73.3000 100 hurdat_atl main 469 453 O_____________ hurdat_atl AL011950 25.9000 -73.3000 HU 100 3 9 319
1950224N17305 1950 58 NA NA ABLE 1950-08-17 21:00:00 TS 26.2849 -73.6148 main 457 442 P_____________ AL011950 26.2849 -73.6148 HU 100 3 10 326
1950224N17305 1950 58 NA NA ABLE 1950-08-18 00:00:00 TS 26.7000 -73.9000 100 hurdat_atl main 447 438 O_____________ hurdat_atl AL011950 26.7000 -73.9000 HU 100 3 9 326
1950224N17305 1950 58 NA NA ABLE 1950-08-18 03:00:00 TS 27.0149 -74.1578 main 434 431 P_____________ AL011950 27.0149 -74.1578 HU 100 3 7 323
1950224N17305 1950 58 NA NA ABLE 1950-08-18 06:00:00 TS 27.3000 -74.4000 100 hurdat_atl main 434 431 O_____________ hurdat_atl AL011950 27.3000 -74.4000 HU 100 3 7 323
1950224N17305 1950 58 NA NA ABLE 1950-08-18 09:00:00 TS 27.6075 -74.6575 main 431 430 P_____________ AL011950 27.6075 -74.6575 HU 100 3 7 324
1950224N17305 1950 58 NA NA ABLE 1950-08-18 12:00:00 TS 27.9000 -74.9000 100 958 hurdat_atl main 439 439 O_____________ hurdat_atl AL011950 27.9000 -74.9000 HU 100 958 3 7 322
1950224N17305 1950 58 NA NA ABLE 1950-08-18 15:00:00 TS 28.1425 -75.1226 main 441 441 P_____________ AL011950 28.1425 -75.1226 HU 102 3 6 325
1950224N17305 1950 58 NA NA ABLE 1950-08-18 18:00:00 TS 28.4000 -75.3000 105 hurdat_atl main 455 455 O_____________ hurdat_atl AL011950 28.4000 -75.3000 HU 105 3 6 335
1950224N17305 1950 58 NA NA ABLE 1950-08-18 21:00:00 TS 28.7275 -75.4300 main 477 477 P_____________ AL011950 28.7275 -75.4300 HU 105 3 7 346
1950224N17305 1950 58 NA NA ABLE 1950-08-19 00:00:00 TS 29.1000 -75.5000 105 hurdat_atl main 491 491 O_____________ hurdat_atl AL011950 29.1000 -75.5000 HU 105 3 8 354
1950224N17305 1950 58 NA NA ABLE 1950-08-19 03:00:00 TS 29.4925 -75.5152 main 498 498 P_____________ AL011950 29.4925 -75.5152 HU 105 3 8 1
1950224N17305 1950 58 NA NA ABLE 1950-08-19 06:00:00 TS 29.9000 -75.5000 105 hurdat_atl main 504 465 O_____________ hurdat_atl AL011950 29.9000 -75.5000 HU 105 3 8 0
1950224N17305 1950 58 NA NA ABLE 1950-08-19 09:00:00 TS 30.2850 -75.5000 main 465 427 P_____________ AL011950 30.2850 -75.5000 HU 105 3 8 1
1950224N17305 1950 58 NA NA ABLE 1950-08-19 12:00:00 TS 30.7000 -75.5000 105 953 hurdat_atl main 427 390 O_____________ hurdat_atl AL011950 30.7000 -75.5000 HU 105 953 3 9 359
1950224N17305 1950 58 NA NA ABLE 1950-08-19 15:00:00 TS 31.1775 -75.5221 main 381 338 P_____________ AL011950 31.1775 -75.5221 HU 107 3 10 1
1950224N17305 1950 58 NA NA ABLE 1950-08-19 18:00:00 TS 31.7000 -75.5000 110 hurdat_atl main 338 296 O_____________ hurdat_atl AL011950 31.7000 -75.5000 HU 110 3 10 5
1950224N17305 1950 58 NA NA ABLE 1950-08-19 21:00:00 TS 32.2048 -75.4164 main 296 243 P_____________ AL011950 32.2048 -75.4164 HU 110 3 11 13
1950224N17305 1950 58 NA NA ABLE 1950-08-20 00:00:00 TS 32.8000 -75.2000 110 hurdat_atl main 243 198 O_____________ hurdat_atl AL011950 32.8000 -75.2000 HU 110 3 14 19
1950224N17305 1950 58 NA NA ABLE 1950-08-20 03:00:00 TS 33.5620 -74.8466 main 198 182 P_____________ AL011950 33.5620 -74.8466 HU 107 3 18 25
1950224N17305 1950 58 NA NA ABLE 1950-08-20 06:00:00 TS 34.4000 -74.3000 105 hurdat_atl main 184 175 O_____________ hurdat_atl AL011950 34.4000 -74.3000 HU 105 3 20 33
1950224N17305 1950 58 NA NA ABLE 1950-08-20 09:00:00 TS 35.2002 -73.5597 main 184 184 P_____________ AL011950 35.2002 -73.5597 HU 102 3 21 39
1950224N17305 1950 58 NA NA ABLE 1950-08-20 12:00:00 TS 36.0000 -72.7000 100 hurdat_atl main 252 252 O_____________ hurdat_atl AL011950 36.0000 -72.7000 HU 100 3 21 41
1950224N17305 1950 58 NA NA ABLE 1950-08-20 15:00:00 TS 36.7922 -71.8484 main 334 329 P_____________ AL011950 36.7922 -71.8484 HU 95 2 21 40
1950224N17305 1950 58 NA NA ABLE 1950-08-20 18:00:00 TS 37.6000 -71.0000 90 hurdat_atl main 355 331 O_____________ hurdat_atl AL011950 37.6000 -71.0000 HU 90 2 21 38
1950224N17305 1950 58 NA NA ABLE 1950-08-20 21:00:00 TS 38.4260 -70.2261 main 336 275 P_____________ AL011950 38.4260 -70.2261 HU 85 2 21 36
1950224N17305 1950 58 NA NA ABLE 1950-08-21 00:00:00 TS 39.3000 -69.4000 80 hurdat_atl main 268 208 O_____________ hurdat_atl AL011950 39.3000 -69.4000 HU 80 1 23 38
1950224N17305 1950 58 NA NA ABLE 1950-08-21 03:00:00 TS 40.2197 -68.4001 main 213 206 P_____________ AL011950 40.2197 -68.4001 HU 75 1 25 40
1950224N17305 1950 58 NA NA ABLE 1950-08-21 06:00:00 TS 41.2000 -67.3000 70 hurdat_atl main 231 150 O_____________ hurdat_atl AL011950 41.2000 -67.3000 HU 70 1 27 40
1950224N17305 1950 58 NA NA ABLE 1950-08-21 09:00:00 TS 42.2496 -66.1322 main 148 37 P_____________ AL011950 42.2496 -66.1322 HU 67 1 27 39
1950224N17305 1950 58 NA NA ABLE 1950-08-21 12:00:00 TS 43.3000 -65.0000 65 hurdat_atl main 32 11 O_____________ hurdat_atl AL011950 43.3000 -65.0000 HU 65 1 25 37
1950224N17305 1950 58 NA NA ABLE 1950-08-21 15:00:00 TS 44.2261 -64.1050 main 13 0 P_____________ AL011950 44.2261 -64.1050 HU 65 1 24 36
1950224N17305 1950 58 NA NA ABLE 1950-08-21 16:00:00 TS 44.6000 -63.7000 65 hurdat_atl main 0 0 O_____________ hurdat_atl AL011950 44.6000 -63.7000 L HU 65 1 33 40
1950224N17305 1950 58 NA NA ABLE 1950-08-21 18:00:00 TS 45.5000 -62.6000 45 hurdat_atl main 0 0 O_____________ hurdat_atl AL011950 45.5000 -62.6000 TS 45 0 34 40
1950224N17305 1950 58 NA NA ABLE 1950-08-21 21:00:00 TS 46.7514 -61.1474 main 18 13 P_____________ AL011950 46.7514 -61.1474 TS 40 0 31 39
1950224N17305 1950 58 NA NA ABLE 1950-08-22 00:00:00 ET 47.9000 -59.8000 35 hurdat_atl main 29 0 O_____________ hurdat_atl AL011950 47.9000 -59.8000 EX 35 -4 29 41
1950224N17305 1950 58 NA NA ABLE 1950-08-22 03:00:00 ET 48.9786 -58.3085 main 0 0 P_____________ AL011950 48.9786 -58.3085 EX 32 -4 29 43
1950224N17305 1950 58 NA NA ABLE 1950-08-22 06:00:00 ET 50.0000 -56.8000 30 hurdat_atl main 0 0 O_____________ hurdat_atl AL011950 50.0000 -56.8000 EX 30 -4 28 43
1950224N17305 1950 58 NA NA ABLE 1950-08-22 09:00:00 ET 51.0352 -55.3030 main 29 29 P_____________ AL011950 51.0352 -55.3030 EX 30 -4 27 43
1950224N17305 1950 58 NA NA ABLE 1950-08-22 12:00:00 ET 52.0000 -53.8000 30 hurdat_atl main 128 128 O_____________ hurdat_atl AL011950 52.0000 -53.8000 EX 30 -4 26 46
1950224N17305 1950 58 NA NA ABLE 1950-08-22 15:00:00 ET 52.8659 -52.2462 main 234 234 P_____________ AL011950 52.8659 -52.2462 EX 30 -4 25 49
1950224N17305 1950 58 NA NA ABLE 1950-08-22 18:00:00 ET 53.6000 -50.7000 30 hurdat_atl main 337 337 O_____________ hurdat_atl AL011950 53.6000 -50.7000 EX 30 -4 23 53
1950224N17305 1950 58 NA NA ABLE 1950-08-22 21:00:00 ET 54.2229 -49.1811 main 442 442 P_____________ AL011950 54.2229 -49.1811 EX 32 -4 21 58
1950224N17305 1950 58 NA NA ABLE 1950-08-23 00:00:00 ET 54.7000 -47.7000 35 hurdat_atl main 548 548 O_____________ hurdat_atl AL011950 54.7000 -47.7000 EX 35 -4 19 63
1950224N17305 1950 58 NA NA ABLE 1950-08-23 03:00:00 ET 55.0801 -46.2484 main 548 520 P_____________ AL011950 55.0801 -46.2484 EX 35 -4 18 70
1950224N17305 1950 58 NA NA ABLE 1950-08-23 06:00:00 ET 55.3000 -44.8000 35 hurdat_atl main 520 509 O_____________ hurdat_atl AL011950 55.3000 -44.8000 EX 35 -4 16 79
1950224N17305 1950 58 NA NA ABLE 1950-08-23 09:00:00 ET 55.3997 -43.3933 main 514 514 P_____________ AL011950 55.3997 -43.3933 EX 35 -4 17 90
1950224N17305 1950 58 NA NA ABLE 1950-08-23 12:00:00 ET 55.3000 -41.8000 35 hurdat_atl main 537 537 O_____________ hurdat_atl AL011950 55.3000 -41.8000 EX 35 -4 21 102
1950224N17305 1950 58 NA NA ABLE 1950-08-23 15:00:00 ET 54.9754 -39.8208 main 597 597 P_____________ AL011950 54.9754 -39.8208 EX 32 -4 25 109
1950224N17305 1950 58 NA NA ABLE 1950-08-23 18:00:00 ET 54.5000 -37.7000 30 hurdat_atl main 698 698 O_____________ hurdat_atl AL011950 54.5000 -37.7000 EX 30 -4 26 112
1950224N17305 1950 58 NA NA ABLE 1950-08-23 21:00:00 ET 54.0135 -35.6489 main 811 811 P_____________ AL011950 54.0135 -35.6489 EX 30 -4 25 113
1950224N17305 1950 58 NA NA ABLE 1950-08-24 00:00:00 ET 53.5000 -33.7000 30 hurdat_atl main 924 924 O_____________ hurdat_atl AL011950 53.5000 -33.7000 EX 30 -4 24 115
1950224N17305 1950 58 NA NA ABLE 1950-08-24 03:00:00 ET 52.9984 -31.9372 main 1038 1038 P_____________ AL011950 52.9984 -31.9372 EX 30 -4 23 116
1950224N17305 1950 58 NA NA ABLE 1950-08-24 06:00:00 ET 52.5000 -30.3000 30 hurdat_atl main 1147 O_____________ hurdat_atl AL011950 52.5000 -30.3000 EX 30 -4 22 117

IBTrACS Databaseについて

本データベースは、米国NOAAが公開する1842年以降の世界の熱帯低気圧のベストトラックデータアーカイブInternational Best Track Archive for Climate Stewardship (IBTrACS)を、ウェブで閲覧しやすい形式に変換したものです。

最終更新日:2021-10-08